Time;durP1;ratioP1;P1;durP2;ratioP2;P2;SDS_P1;SDS_P2;PMS_P1;PMS_P2;Temp;Humidity;BMP_temperature;BMP_pressure;BME280_temperature;BME280_humidity;BME280_pressure;Samples;Min_cycle;Max_cycle;Signal;HPM_P1;HPM_P2
2024/02/27 00:01:46;;;;;;;7.53;4.05;;;7.90;97.90;;;;;;5100070;28;20475;-69
2024/02/27 00:04:11;;;;;;;9.85;3.67;;;7.90;98.00;;;;;;5090858;28;20024;-69
2024/02/27 00:06:37;;;;;;;11.00;4.10;;;7.90;98.00;;;;;;5089198;28;20391;-69
2024/02/27 00:09:03;;;;;;;8.68;4.03;;;7.90;98.10;;;;;;5092649;28;20024;-69
2024/02/27 00:11:29;;;;;;;10.63;3.67;;;7.90;98.10;;;;;;5088641;28;20449;-69
2024/02/27 00:13:55;;;;;;;10.02;4.85;;;7.90;98.10;;;;;;5094070;28;20032;-69
2024/02/27 00:16:21;;;;;;;10.75;4.45;;;7.90;98.00;;;;;;5098862;28;20058;-69
2024/02/27 00:18:47;;;;;;;12.93;3.50;;;8.00;98.00;;;;;;5105605;28;20475;-69
2024/02/27 00:21:14;;;;;;;7.93;3.90;;;8.00;98.20;;;;;;5111963;28;20035;-69
2024/02/27 00:23:40;;;;;;;8.20;4.53;;;7.90;97.80;;;;;;5096544;28;20053;-69
2024/02/27 00:26:06;;;;;;;9.15;4.43;;;8.00;97.90;;;;;;5110802;28;20043;-69
2024/02/27 00:28:32;;;;;;;16.20;5.00;;;8.00;97.90;;;;;;5093106;28;20453;-69
2024/02/27 00:30:57;;;;;;;9.70;5.07;;;7.90;97.90;;;;;;5104275;28;20047;-69
2024/02/27 00:33:23;;;;;;;8.50;4.20;;;7.80;97.90;;;;;;5094175;28;20028;-69
2024/02/27 00:35:49;;;;;;;11.00;4.70;;;7.80;97.90;;;;;;5099764;27;20036;-69
2024/02/27 00:38:14;;;;;;;9.18;5.10;;;7.80;98.00;;;;;;5091124;28;20031;-69
2024/02/27 00:40:40;;;;;;;11.52;5.40;;;7.80;98.00;;;;;;5092359;28;20106;-69
2024/02/27 00:43:06;;;;;;;16.42;5.60;;;7.80;98.30;;;;;;5101121;28;20077;-69
2024/02/27 00:45:31;;;;;;;14.55;4.63;;;7.80;98.00;;;;;;5100881;28;20044;-69
2024/02/27 00:47:57;;;;;;;9.27;4.90;;;7.80;98.00;;;;;;5095350;28;20042;-69
2024/02/27 00:50:23;;;;;;;13.93;5.88;;;7.80;98.00;;;;;;5092659;28;20111;-69
2024/02/27 00:52:49;;;;;;;9.52;5.00;;;7.90;98.00;;;;;;5089816;28;20097;-69
2024/02/27 00:55:16;;;;;;;10.50;4.97;;;7.80;97.90;;;;;;5101534;28;20031;-69
2024/02/27 00:57:42;;;;;;;9.35;4.78;;;7.90;97.90;;;;;;5093115;28;20087;-69
2024/02/27 01:00:09;;;;;;;10.80;5.38;;;7.90;97.80;;;;;;5091463;28;20063;-69
2024/02/27 01:02:37;;;;;;;11.32;4.88;;;7.90;97.80;;;;;;5095199;28;20139;-69
2024/02/27 01:05:03;;;;;;;12.57;4.88;;;7.90;97.70;;;;;;5104313;28;20117;-69
2024/02/27 01:07:29;;;;;;;15.48;5.40;;;7.90;97.60;;;;;;5102892;28;20088;-69
2024/02/27 01:09:56;;;;;;;12.05;4.95;;;8.00;97.60;;;;;;5104620;28;20471;-69
2024/02/27 01:12:22;;;;;;;13.98;5.30;;;8.00;97.50;;;;;;5109604;28;20102;-69
2024/02/27 01:14:47;;;;;;;15.88;4.88;;;8.00;97.40;;;;;;5101908;28;20208;-69
2024/02/27 01:17:13;;;;;;;10.15;4.78;;;8.00;97.30;;;;;;5100321;28;20034;-69
2024/02/27 01:19:39;;;;;;;11.68;5.05;;;8.00;97.20;;;;;;5107429;28;20038;-70
2024/02/27 01:22:04;;;;;;;11.77;5.20;;;8.10;97.10;;;;;;5103576;28;20028;-70
2024/02/27 01:24:30;;;;;;;15.52;5.30;;;8.10;97.00;;;;;;5102834;28;20031;-69
2024/02/27 01:26:56;;;;;;;10.68;5.07;;;8.10;96.90;;;;;;5098715;28;20094;-69
2024/02/27 01:29:22;;;;;;;14.25;5.35;;;8.10;96.90;;;;;;5104689;28;20032;-69
2024/02/27 01:31:48;;;;;;;10.23;5.20;;;8.10;96.90;;;;;;5101506;28;20043;-69
2024/02/27 01:34:14;;;;;;;12.90;4.90;;;8.10;96.80;;;;;;5099258;28;20032;-69
2024/02/27 01:36:39;;;;;;;8.52;4.45;;;8.10;96.70;;;;;;5095761;28;20030;-69
2024/02/27 01:39:06;;;;;;;10.00;5.75;;;8.10;96.70;;;;;;5095047;28;20028;-69
2024/02/27 01:41:32;;;;;;;11.00;4.95;;;8.00;96.60;;;;;;5100469;28;20034;-70
2024/02/27 01:43:57;;;;;;;13.25;5.38;;;8.10;96.60;;;;;;5105146;28;20103;-69
2024/02/27 01:46:24;;;;;;;15.63;4.85;;;8.10;96.50;;;;;;5100035;28;20436;-70
2024/02/27 01:48:53;;;;;;;12.52;4.82;;;8.10;96.50;;;;;;5090914;28;20802;-69
2024/02/27 01:51:19;;;;;;;8.32;4.60;;;8.10;96.40;;;;;;5093077;28;20550;-69
2024/02/27 01:53:51;;;;;;;10.15;5.30;;;8.10;96.40;;;;;;5093536;28;20044;-69
2024/02/27 01:56:17;;;;;;;9.98;5.05;;;8.10;96.30;;;;;;5110053;28;20121;-69
2024/02/27 01:58:44;;;;;;;11.30;5.32;;;8.10;96.30;;;;;;5103082;28;20081;-69
2024/02/27 02:01:11;;;;;;;9.50;4.88;;;8.10;96.30;;;;;;5091343;28;20045;-69
2024/02/27 02:03:38;;;;;;;10.80;5.20;;;8.10;96.20;;;;;;5088808;28;20028;-69
2024/02/27 02:06:06;;;;;;;10.70;4.93;;;8.10;96.20;;;;;;5101156;28;20047;-69
2024/02/27 02:08:33;;;;;;;9.30;4.75;;;8.10;96.10;;;;;;5097067;28;20073;-69
2024/02/27 02:10:59;;;;;;;11.73;4.38;;;8.10;96.20;;;;;;5104582;28;20487;-69
2024/02/27 02:13:25;;;;;;;10.20;4.05;;;8.00;96.20;;;;;;5097423;28;20027;-69
2024/02/27 02:15:51;;;;;;;10.38;4.95;;;8.00;96.50;;;;;;5107513;28;20042;-69
2024/02/27 02:18:17;;;;;;;10.50;4.82;;;8.00;96.10;;;;;;5094791;28;20036;-69
2024/02/27 02:20:42;;;;;;;8.70;4.00;;;8.00;96.20;;;;;;5096722;28;20050;-69
2024/02/27 02:23:08;;;;;;;8.75;3.50;;;7.90;96.10;;;;;;5096199;28;20035;-69
2024/02/27 02:25:36;;;;;;;12.80;4.70;;;7.90;96.20;;;;;;5099320;28;20108;-70
2024/02/27 02:28:03;;;;;;;9.27;4.15;;;7.90;96.10;;;;;;5125367;27;20031;-69
2024/02/27 02:30:28;;;;;;;10.30;4.20;;;7.90;96.20;;;;;;5112724;27;20057;-69
2024/02/27 02:32:54;;;;;;;7.38;4.25;;;7.90;96.20;;;;;;5099325;27;20048;-69
2024/02/27 02:35:20;;;;;;;8.38;3.92;;;7.90;96.20;;;;;;5105214;27;20376;-69
2024/02/27 02:37:47;;;;;;;6.53;3.40;;;7.90;96.20;;;;;;5095016;28;20028;-69
2024/02/27 02:40:14;;;;;;;11.82;4.00;;;7.80;96.10;;;;;;5089603;28;20024;-69
2024/02/27 02:42:40;;;;;;;9.60;3.75;;;7.90;96.00;;;;;;5097165;28;20104;-69
2024/02/27 02:45:06;;;;;;;7.28;3.75;;;7.90;96.00;;;;;;5114102;27;20805;-69
2024/02/27 02:47:32;;;;;;;12.27;4.10;;;7.90;95.90;;;;;;5102279;28;20483;-70
2024/02/27 02:49:58;;;;;;;11.57;4.20;;;7.90;95.80;;;;;;5097184;28;20046;-70
2024/02/27 02:52:23;;;;;;;9.40;4.55;;;7.90;95.80;;;;;;5093465;28;20051;-70
2024/02/27 02:54:50;;;;;;;9.50;3.53;;;7.90;95.70;;;;;;5088770;28;20039;-69
2024/02/27 02:57:16;;;;;;;8.52;3.35;;;8.00;95.70;;;;;;5103068;28;20060;-69
2024/02/27 02:59:43;;;;;;;12.65;3.88;;;7.90;95.80;;;;;;5099184;28;20475;-69
2024/02/27 03:02:08;;;;;;;9.20;3.60;;;7.80;95.80;;;;;;5099371;27;20040;-69
2024/02/27 03:04:34;;;;;;;12.90;3.42;;;7.80;95.90;;;;;;5101100;28;20028;-70
2024/02/27 03:07:00;;;;;;;8.90;2.90;;;7.80;96.00;;;;;;5088414;28;20059;-69
2024/02/27 03:09:25;;;;;;;9.57;3.47;;;7.70;96.10;;;;;;5093291;28;20495;-69
2024/02/27 03:11:51;;;;;;;9.57;3.28;;;7.70;96.20;;;;;;5093615;28;20036;-69
2024/02/27 03:14:17;;;;;;;4.30;2.90;;;7.60;96.40;;;;;;5107296;28;20039;-69
2024/02/27 03:16:45;;;;;;;9.65;3.50;;;7.60;96.30;;;;;;5103005;28;20042;-69
2024/02/27 03:19:11;;;;;;;11.35;5.72;;;7.60;96.40;;;;;;5089044;28;20031;-69
2024/02/27 03:21:39;;;;;;;11.07;3.10;;;7.60;96.40;;;;;;5087421;28;20028;-70
2024/02/27 03:24:05;;;;;;;6.00;2.78;;;7.50;96.40;;;;;;5106628;28;20077;-69
2024/02/27 03:26:30;;;;;;;10.27;2.80;;;7.50;96.40;;;;;;5096155;28;20039;-69
2024/02/27 03:28:57;;;;;;;7.32;2.88;;;7.50;96.40;;;;;;5099958;28;20039;-69
2024/02/27 03:31:23;;;;;;;8.00;3.00;;;7.50;96.40;;;;;;5099282;28;20119;-69
2024/02/27 03:33:48;;;;;;;5.43;2.30;;;7.50;96.40;;;;;;5087622;28;20106;-70
2024/02/27 03:36:14;;;;;;;10.32;2.70;;;7.50;96.30;;;;;;5120645;27;20110;-69
2024/02/27 03:38:40;;;;;;;7.53;2.50;;;7.50;96.30;;;;;;5108217;28;20027;-70
2024/02/27 03:41:19;;;;;;;7.65;2.55;;;7.50;96.20;;;;;;5088422;28;20040;-69
2024/02/27 03:43:45;;;;;;;6.68;2.70;;;7.50;96.10;;;;;;5108094;28;20147;-70
2024/02/27 03:46:11;;;;;;;9.40;2.53;;;7.50;96.20;;;;;;5103890;28;20051;-69
2024/02/27 03:48:37;;;;;;;8.10;2.78;;;7.50;96.20;;;;;;5108120;28;20028;-69
2024/02/27 03:51:03;;;;;;;5.50;2.50;;;7.40;96.20;;;;;;5102482;28;20039;-69
2024/02/27 03:53:29;;;;;;;6.13;2.50;;;7.50;96.20;;;;;;5097373;28;20058;-69
2024/02/27 03:55:55;;;;;;;7.25;2.78;;;7.50;96.10;;;;;;5090943;28;20032;-69
2024/02/27 03:58:21;;;;;;;7.85;2.78;;;7.40;96.10;;;;;;5098047;28;20043;-69
2024/02/27 04:00:47;;;;;;;4.88;2.80;;;7.50;96.10;;;;;;5097609;28;20423;-69
2024/02/27 04:03:12;;;;;;;9.73;2.95;;;7.40;96.00;;;;;;5093282;28;20501;-69
2024/02/27 04:05:38;;;;;;;11.57;3.03;;;7.50;96.00;;;;;;5098274;28;20387;-69
2024/02/27 04:08:08;;;;;;;5.03;2.63;;;7.50;95.90;;;;;;5087577;28;20420;-69
2024/02/27 04:10:37;;;;;;;10.85;2.80;;;7.40;95.90;;;;;;5088161;28;20035;-70
2024/02/27 04:13:03;;;;;;;8.38;2.67;;;7.40;95.80;;;;;;5088933;28;20040;-69
2024/02/27 04:15:29;;;;;;;7.47;2.97;;;7.40;95.80;;;;;;5088322;28;20024;-69
2024/02/27 04:17:55;;;;;;;6.20;2.60;;;7.40;95.80;;;;;;5090088;28;20390;-69
2024/02/27 04:20:22;;;;;;;9.15;2.83;;;7.40;95.80;;;;;;5100981;28;20028;-69
2024/02/27 04:22:48;;;;;;;3.88;2.33;;;7.40;95.80;;;;;;5089308;28;20061;-70
2024/02/27 04:25:14;;;;;;;10.65;3.13;;;7.40;95.90;;;;;;5102544;28;20149;-69
2024/02/27 04:27:40;;;;;;;8.90;2.88;;;7.30;95.90;;;;;;5090416;28;20043;-69
2024/02/27 04:30:08;;;;;;;11.27;3.38;;;7.30;95.90;;;;;;5097104;28;20487;-69
2024/02/27 04:32:35;;;;;;;6.55;2.90;;;7.30;96.00;;;;;;5097596;28;20459;-69
2024/02/27 04:35:02;;;;;;;9.40;2.70;;;7.30;96.00;;;;;;5110302;28;20050;-69
2024/02/27 04:37:27;;;;;;;6.25;2.90;;;7.30;96.00;;;;;;5089755;28;20036;-69
2024/02/27 04:39:54;;;;;;;10.57;3.20;;;7.30;95.90;;;;;;5089434;28;20035;-69
2024/02/27 04:42:20;;;;;;;10.88;3.35;;;7.30;95.90;;;;;;5090198;28;20035;-69
2024/02/27 04:44:45;;;;;;;8.63;3.28;;;7.30;95.90;;;;;;5088922;28;20028;-69
2024/02/27 04:47:11;;;;;;;10.68;3.88;;;7.20;95.90;;;;;;5096516;28;20471;-69
2024/02/27 04:49:37;;;;;;;6.63;3.30;;;7.30;95.90;;;;;;5094092;28;20020;-69
2024/02/27 04:52:03;;;;;;;11.30;3.50;;;7.30;95.90;;;;;;5100383;28;20043;-69
2024/02/27 04:54:29;;;;;;;7.90;3.22;;;7.30;95.80;;;;;;5102954;28;20035;-69
2024/02/27 04:57:00;;;;;;;7.28;3.40;;;7.30;95.80;;;;;;5089882;28;20032;-69
2024/02/27 04:59:26;;;;;;;9.32;4.00;;;7.30;95.90;;;;;;5088441;28;20391;-69
2024/02/27 05:01:52;;;;;;;6.38;3.70;;;7.30;95.90;;;;;;5090875;28;20058;-69
2024/02/27 05:04:18;;;;;;;10.20;3.42;;;7.30;95.90;;;;;;5096790;28;20476;-69
2024/02/27 05:06:43;;;;;;;9.02;4.22;;;7.30;95.90;;;;;;5091438;28;20097;-69
2024/02/27 05:09:09;;;;;;;10.43;3.85;;;7.30;95.90;;;;;;5097147;28;20139;-69
2024/02/27 05:11:35;;;;;;;13.50;4.20;;;7.30;95.90;;;;;;5091015;28;20062;-70
2024/02/27 05:14:01;;;;;;;11.27;4.28;;;7.30;95.90;;;;;;5098035;28;20051;-70
2024/02/27 05:16:26;;;;;;;8.65;4.18;;;7.30;95.90;;;;;;5090381;28;20028;-69
2024/02/27 05:18:52;;;;;;;10.63;4.40;;;7.30;95.90;;;;;;5090829;28;20082;-69
2024/02/27 05:21:18;;;;;;;7.57;3.78;;;7.30;96.00;;;;;;5101342;28;20040;-69
2024/02/27 05:23:45;;;;;;;6.72;4.47;;;7.30;96.00;;;;;;5093571;28;20027;-70
2024/02/27 05:26:15;;;;;;;7.55;4.07;;;7.30;96.10;;;;;;5092648;28;20541;-69
2024/02/27 05:28:40;;;;;;;6.53;3.70;;;7.30;96.10;;;;;;5090315;28;20024;-69
2024/02/27 05:31:26;;;;;;;12.30;4.55;;;7.40;96.20;;;;;;5100037;28;20545;-69
2024/02/27 05:33:52;;;;;;;9.95;3.83;;;7.40;96.10;;;;;;5102884;28;20527;-69
2024/02/27 05:36:18;;;;;;;10.80;4.10;;;7.50;96.00;;;;;;5092418;28;20055;-69
2024/02/27 05:38:44;;;;;;;8.25;4.03;;;7.50;96.10;;;;;;5095013;28;20085;-70
2024/02/27 05:41:10;;;;;;;10.20;5.05;;;7.50;96.30;;;;;;5098411;28;20031;-70
2024/02/27 05:43:36;;;;;;;8.85;3.70;;;7.50;96.00;;;;;;5106255;28;20046;-70
2024/02/27 05:46:05;;;;;;;10.70;3.70;;;7.50;96.00;;;;;;5090755;28;20040;-70
2024/02/27 05:48:31;;;;;;;14.02;4.68;;;7.60;96.00;;;;;;5088930;28;20042;-70
2024/02/27 05:50:57;;;;;;;13.93;4.72;;;7.60;96.00;;;;;;5087982;28;20071;-71
2024/02/27 05:53:24;;;;;;;11.10;4.50;;;7.60;95.90;;;;;;5096026;28;20076;-69
2024/02/27 05:55:52;;;;;;;7.18;3.35;;;7.60;95.90;;;;;;5088966;28;20040;-70
2024/02/27 05:58:19;;;;;;;7.25;3.63;;;7.60;95.90;;;;;;5100949;28;20130;-69
2024/02/27 06:00:45;;;;;;;11.02;3.67;;;7.70;95.90;;;;;;5089940;28;20035;-70
2024/02/27 06:03:11;;;;;;;11.68;3.97;;;7.70;95.90;;;;;;5092356;28;20382;-69
2024/02/27 06:05:36;;;;;;;11.27;3.88;;;7.70;95.80;;;;;;5107222;28;20036;-69
2024/02/27 06:08:02;;;;;;;9.43;4.15;;;7.80;95.80;;;;;;5094833;28;20034;-69
2024/02/27 06:10:28;;;;;;;6.40;3.55;;;7.80;95.60;;;;;;5092494;28;20024;-69
2024/02/27 06:12:56;;;;;;;14.18;3.88;;;7.80;95.50;;;;;;5093939;28;20020;-70
2024/02/27 06:15:22;;;;;;;7.90;3.75;;;7.90;95.50;;;;;;5101652;28;20069;-70
2024/02/27 06:17:47;;;;;;;11.27;4.00;;;7.90;95.40;;;;;;5091285;28;20777;-70
2024/02/27 06:22:57;;;;;;;6.53;3.38;;;8.00;95.20;;;;;;5097028;28;20119;-71
2024/02/27 06:25:23;;;;;;;8.27;3.60;;;8.00;95.10;;;;;;5101541;28;20138;-71
2024/02/27 06:27:51;;;;;;;7.50;4.10;;;7.90;95.10;;;;;;5088934;28;20449;-69
2024/02/27 06:30:17;;;;;;;6.88;3.40;;;8.00;95.00;;;;;;5092546;28;20030;-68
2024/02/27 06:32:42;;;;;;;8.60;3.70;;;8.00;95.00;;;;;;5096680;28;20103;-68
2024/02/27 06:35:11;;;;;;;8.27;4.47;;;8.00;94.90;;;;;;5105753;27;20036;-68
2024/02/27 06:37:37;;;;;;;7.82;4.10;;;8.10;94.90;;;;;;5095828;28;20037;-69
2024/02/27 06:40:07;;;;;;;7.68;3.53;;;8.10;94.80;;;;;;5103673;28;20111;-67
2024/02/27 06:42:36;;;;;;;5.95;3.60;;;8.10;94.80;;;;;;5090604;28;20057;-68
2024/02/27 06:45:12;;;;;;;7.97;3.95;;;8.10;94.70;;;;;;5100534;28;20034;-68
2024/02/27 06:47:40;;;;;;;9.23;4.13;;;8.10;94.60;;;;;;5089169;28;20028;-69
2024/02/27 06:50:07;;;;;;;8.23;4.43;;;8.10;94.60;;;;;;5101709;28;20063;-69
2024/02/27 06:52:36;;;;;;;12.30;4.47;;;8.10;94.70;;;;;;5104854;28;20047;-70
2024/02/27 06:55:03;;;;;;;7.22;3.90;;;8.10;94.70;;;;;;5099062;28;20111;-70
2024/02/27 06:57:29;;;;;;;7.07;3.58;;;8.20;94.70;;;;;;5091733;28;20540;-69
2024/02/27 06:59:55;;;;;;;10.48;4.20;;;8.10;94.70;;;;;;5090295;28;20063;-68
2024/02/27 07:02:21;;;;;;;11.00;4.53;;;8.10;94.60;;;;;;5103952;28;20068;-69
2024/02/27 07:04:46;;;;;;;10.38;3.80;;;8.00;94.70;;;;;;5089092;28;20032;-71
2024/02/27 07:07:12;;;;;;;14.35;4.55;;;8.00;94.70;;;;;;5096408;28;20032;-68
2024/02/27 07:09:38;;;;;;;12.43;4.00;;;8.00;94.70;;;;;;5094300;28;20485;-68
2024/02/27 07:12:03;;;;;;;10.27;5.00;;;8.00;94.70;;;;;;5091976;28;20020;-68
2024/02/27 07:14:32;;;;;;;9.93;4.70;;;8.00;94.80;;;;;;5087877;28;20019;-68
2024/02/27 07:16:59;;;;;;;10.20;4.75;;;7.90;94.80;;;;;;5089297;28;20035;-68
2024/02/27 07:19:25;;;;;;;10.90;4.88;;;7.80;94.90;;;;;;5100764;28;20817;-68
2024/02/27 07:21:51;;;;;;;10.93;4.68;;;7.80;95.00;;;;;;5094246;28;20081;-69
2024/02/27 07:24:20;;;;;;;10.63;4.95;;;7.80;95.10;;;;;;5095130;28;20031;-68
2024/02/27 07:26:45;;;;;;;13.23;5.20;;;7.80;95.20;;;;;;5100219;28;20067;-68
2024/02/27 07:29:14;;;;;;;10.25;4.60;;;7.80;95.20;;;;;;5096938;28;20032;-68
2024/02/27 07:31:40;;;;;;;11.30;4.35;;;7.80;95.30;;;;;;5084741;28;20031;-69
2024/02/27 07:34:05;;;;;;;10.88;4.80;;;7.80;95.40;;;;;;5099793;27;20032;-70
2024/02/27 07:36:31;;;;;;;9.45;5.10;;;7.80;95.50;;;;;;5099008;27;20107;-69
2024/02/27 07:38:57;;;;;;;8.95;4.80;;;7.70;95.50;;;;;;5086297;28;21145;-69
2024/02/27 07:41:22;;;;;;;10.15;4.57;;;7.70;95.60;;;;;;5091832;28;20032;-69
2024/02/27 07:43:48;;;;;;;9.93;5.00;;;7.80;95.70;;;;;;5092540;28;20451;-69
2024/02/27 07:46:15;;;;;;;13.98;5.85;;;7.70;95.70;;;;;;5096402;28;20110;-69
2024/02/27 07:48:44;;;;;;;14.88;5.32;;;7.80;95.80;;;;;;5087376;28;20016;-69
2024/02/27 07:51:33;;;;;;;11.40;5.65;;;7.80;95.70;;;;;;5100650;28;20384;-69
2024/02/27 07:53:59;;;;;;;8.80;4.40;;;7.80;95.90;;;;;;5094460;28;20054;-69
2024/02/27 07:56:27;;;;;;;9.98;4.85;;;7.80;95.90;;;;;;5105835;28;20032;-69
2024/02/27 07:58:54;;;;;;;8.00;3.92;;;7.90;95.90;;;;;;5094500;28;20031;-69
2024/02/27 08:01:20;;;;;;;7.68;4.00;;;8.10;95.90;;;;;;5087790;28;20038;-69
2024/02/27 08:03:46;;;;;;;9.23;4.32;;;8.20;95.80;;;;;;5100338;28;20402;-69
2024/02/27 08:06:11;;;;;;;7.75;3.92;;;8.30;95.80;;;;;;5093069;28;20032;-69
2024/02/27 08:08:38;;;;;;;8.57;4.38;;;8.30;95.70;;;;;;5108107;28;20031;-70
2024/02/27 08:11:03;;;;;;;7.55;4.57;;;8.40;95.60;;;;;;5102353;28;20410;-70
2024/02/27 08:13:30;;;;;;;16.50;5.03;;;8.50;95.70;;;;;;5100840;28;20032;-70
2024/02/27 08:15:56;;;;;;;11.63;5.60;;;8.50;95.60;;;;;;5100557;28;20032;-69
2024/02/27 08:18:25;;;;;;;15.82;5.20;;;8.60;95.50;;;;;;5101571;28;20074;-69
2024/02/27 08:20:51;;;;;;;10.77;5.22;;;8.50;95.50;;;;;;5106930;28;20042;-69
2024/02/27 08:23:18;;;;;;;18.17;5.60;;;8.50;95.50;;;;;;5093672;28;20079;-70
2024/02/27 08:25:44;;;;;;;7.43;5.00;;;8.50;95.60;;;;;;5100260;28;20066;-69
2024/02/27 08:28:09;;;;;;;12.13;5.63;;;8.50;95.70;;;;;;5097261;28;20028;-70
2024/02/27 08:30:36;;;;;;;10.00;5.35;;;8.50;95.80;;;;;;5100416;28;20137;-69
2024/02/27 08:33:03;;;;;;;9.50;5.07;;;8.50;95.70;;;;;;5088516;28;20032;-69
2024/02/27 08:35:29;;;;;;;10.98;6.22;;;8.50;95.70;;;;;;5111396;28;20035;-70
2024/02/27 08:37:55;;;;;;;10.50;5.60;;;8.40;95.60;;;;;;5087877;28;20510;-69
2024/02/27 08:40:21;;;;;;;11.52;5.53;;;8.40;95.70;;;;;;5088425;28;20036;-70
2024/02/27 08:42:47;;;;;;;11.82;5.72;;;8.40;95.70;;;;;;5104255;28;20038;-70
2024/02/27 08:45:13;;;;;;;12.23;5.55;;;8.40;95.80;;;;;;5096305;28;20061;-70
2024/02/27 08:47:38;;;;;;;15.00;5.90;;;8.30;95.90;;;;;;5100550;28;20036;-70
2024/02/27 08:50:11;;;;;;;16.85;6.68;;;8.40;95.80;;;;;;5106095;28;20102;-70
2024/02/27 08:52:37;;;;;;;9.57;5.45;;;8.30;95.70;;;;;;5096982;28;20055;-70
2024/02/27 08:55:03;;;;;;;13.35;7.05;;;8.20;95.80;;;;;;5096235;28;20024;-70
2024/02/27 08:57:28;;;;;;;9.45;5.68;;;8.10;95.90;;;;;;5094252;28;20027;-70
2024/02/27 08:59:54;;;;;;;12.85;6.72;;;8.20;96.10;;;;;;5099918;28;20115;-70
2024/02/27 09:02:20;;;;;;;18.20;6.75;;;8.10;96.10;;;;;;5097503;28;20532;-70
2024/02/27 09:04:45;;;;;;;12.30;6.60;;;8.10;96.20;;;;;;5105271;28;20024;-70
2024/02/27 09:07:11;;;;;;;9.93;6.05;;;8.20;96.20;;;;;;5096033;28;20036;-70
2024/02/27 09:09:37;;;;;;;11.07;6.80;;;8.10;96.20;;;;;;5099018;28;20145;-70
2024/02/27 09:12:05;;;;;;;11.85;7.30;;;8.20;96.30;;;;;;5100098;28;20032;-70
2024/02/27 09:14:31;;;;;;;11.63;6.82;;;8.10;96.30;;;;;;5095342;28;20028;-69
2024/02/27 09:16:57;;;;;;;10.68;6.30;;;8.20;96.40;;;;;;5100310;28;20035;-69
2024/02/27 09:19:25;;;;;;;13.02;6.10;;;8.10;96.50;;;;;;5106815;28;20497;-69
2024/02/27 09:21:51;;;;;;;9.05;6.18;;;8.10;96.60;;;;;;5093364;28;20121;-69
2024/02/27 09:24:17;;;;;;;10.07;5.90;;;8.10;96.70;;;;;;5100706;28;20483;-69
2024/02/27 09:26:43;;;;;;;14.57;7.25;;;8.10;96.70;;;;;;5102219;28;20040;-69
2024/02/27 09:29:09;;;;;;;13.88;6.15;;;8.10;96.90;;;;;;5097031;28;20426;-68
2024/02/27 09:31:34;;;;;;;12.98;6.82;;;8.10;96.90;;;;;;5104393;28;20077;-69
2024/02/27 09:34:01;;;;;;;10.80;5.88;;;8.10;96.80;;;;;;5104589;27;20108;-69
2024/02/27 09:36:27;;;;;;;14.25;5.55;;;8.10;96.90;;;;;;5105912;27;20105;-69
2024/02/27 09:38:55;;;;;;;11.23;6.70;;;8.20;96.90;;;;;;5098480;28;20040;-69
2024/02/27 09:41:41;;;;;;;8.98;4.35;;;8.10;97.00;;;;;;5093522;28;20475;-69
2024/02/27 09:44:07;;;;;;;4.90;2.50;;;8.20;97.20;;;;;;5104354;28;20039;-69
2024/02/27 09:46:34;;;;;;;11.27;5.72;;;8.10;97.20;;;;;;5102789;28;20036;-69
2024/02/27 09:49:02;;;;;;;7.63;4.63;;;8.10;97.30;;;;;;5096387;28;20133;-73
2024/02/27 09:51:31;;;;;;;7.70;4.78;;;8.10;97.40;;;;;;5104153;28;20035;-68
2024/02/27 09:53:59;;;;;;;9.75;5.25;;;8.20;97.50;;;;;;5104012;28;20388;-69
2024/02/27 09:56:27;;;;;;;10.15;5.47;;;8.10;97.60;;;;;;5111588;28;20028;-68
2024/02/27 09:58:54;;;;;;;8.93;5.53;;;8.20;97.60;;;;;;5096129;28;20441;-69
2024/02/27 10:01:22;;;;;;;12.82;5.40;;;8.20;97.50;;;;;;5101568;28;20036;-70
2024/02/27 10:03:48;;;;;;;8.68;5.00;;;8.30;97.50;;;;;;5110309;28;20378;-70
2024/02/27 10:06:15;;;;;;;8.15;4.95;;;8.30;97.50;;;;;;5097524;28;20032;-69
2024/02/27 10:08:49;;;;;;;11.07;5.45;;;8.30;97.60;;;;;;5100245;28;20058;-69
2024/02/27 10:11:17;;;;;;;10.48;4.95;;;8.30;97.90;;;;;;5089716;28;20043;-69
2024/02/27 10:13:42;;;;;;;12.23;6.40;;;8.40;97.50;;;;;;5095810;28;20035;-70
2024/02/27 10:16:08;;;;;;;10.48;6.68;;;8.40;97.50;;;;;;5101017;28;20036;-69
2024/02/27 10:18:34;;;;;;;13.07;6.10;;;8.50;97.40;;;;;;5089564;28;20353;-70
2024/02/27 10:20:59;;;;;;;12.38;6.75;;;8.50;97.40;;;;;;5103262;28;20493;-69
2024/02/27 10:23:25;;;;;;;16.25;5.90;;;8.60;97.40;;;;;;5093113;28;20020;-70
2024/02/27 10:25:51;;;;;;;13.50;6.00;;;8.60;97.30;;;;;;5093744;28;20503;-70
2024/02/27 10:28:19;;;;;;;11.35;5.70;;;8.60;97.40;;;;;;5094669;28;20016;-69
2024/02/27 10:30:45;;;;;;;12.13;6.82;;;8.60;97.40;;;;;;5088727;28;20042;-69
2024/02/27 10:33:14;;;;;;;11.48;5.80;;;8.70;97.40;;;;;;5103290;28;20035;-69
2024/02/27 10:35:40;;;;;;;12.40;7.10;;;8.70;97.30;;;;;;5118871;27;20038;-69
2024/02/27 10:38:18;;;;;;;9.75;6.57;;;8.90;97.20;;;;;;5095561;28;20043;-69
2024/02/27 10:40:43;;;;;;;14.25;5.57;;;8.90;97.10;;;;;;5094245;28;20042;-68
2024/02/27 10:43:09;;;;;;;9.02;5.85;;;9.00;97.00;;;;;;5097914;28;20028;-68
2024/02/27 10:45:35;;;;;;;11.65;6.15;;;9.00;97.10;;;;;;5089031;28;20040;-68
2024/02/27 10:48:01;;;;;;;9.38;5.57;;;9.00;97.10;;;;;;5089862;28;20044;-68
2024/02/27 10:50:27;;;;;;;13.23;6.82;;;9.00;97.00;;;;;;5088874;28;20040;-69
2024/02/27 10:52:56;;;;;;;13.43;6.85;;;9.10;97.00;;;;;;5101796;28;20130;-69
2024/02/27 10:55:23;;;;;;;9.10;6.10;;;9.10;97.30;;;;;;5096778;28;20032;-69
2024/02/27 10:57:50;;;;;;;11.15;6.70;;;9.10;97.00;;;;;;5088994;28;20028;-69
2024/02/27 11:00:16;;;;;;;9.13;6.32;;;9.10;97.00;;;;;;5088230;28;20046;-69
2024/02/27 11:02:48;;;;;;;10.70;6.05;;;9.20;97.00;;;;;;5099542;28;20023;-68
2024/02/27 11:05:14;;;;;;;10.65;6.43;;;9.30;96.90;;;;;;5088638;28;20032;-69
2024/02/27 11:07:41;;;;;;;10.57;6.28;;;9.30;96.90;;;;;;5103752;28;20028;-69
2024/02/27 11:10:10;;;;;;;10.55;7.03;;;9.40;96.80;;;;;;5088998;28;20050;-69
2024/02/27 11:12:36;;;;;;;11.73;5.85;;;9.30;97.00;;;;;;5089882;28;20108;-68
2024/02/27 11:15:04;;;;;;;10.88;6.22;;;9.40;97.10;;;;;;5092316;28;20368;-69
2024/02/27 11:17:36;;;;;;;9.52;6.30;;;9.30;97.20;;;;;;5098314;28;20061;-69
2024/02/27 11:20:03;;;;;;;9.50;6.35;;;9.30;97.30;;;;;;5096223;28;20028;-71
2024/02/27 11:22:30;;;;;;;12.75;7.13;;;9.30;97.40;;;;;;5088393;28;20137;-70
2024/02/27 11:24:56;;;;;;;11.18;6.80;;;9.30;97.30;;;;;;5098846;28;20031;-70
2024/02/27 11:27:24;;;;;;;8.43;5.63;;;9.40;97.30;;;;;;5100540;28;20035;-70
2024/02/27 11:29:51;;;;;;;9.27;6.07;;;9.40;97.40;;;;;;5096964;28;20110;-71
2024/02/27 11:32:19;;;;;;;9.15;6.07;;;9.40;97.30;;;;;;5094759;28;20028;-70
2024/02/27 11:34:46;;;;;;;10.38;6.50;;;9.40;97.40;;;;;;5111468;27;20508;-70
2024/02/27 11:37:22;;;;;;;11.18;7.15;;;9.50;97.40;;;;;;5094737;27;20047;-71
2024/02/27 11:39:48;;;;;;;8.27;5.80;;;9.50;97.50;;;;;;5089253;28;20035;-71
2024/02/27 11:42:37;;;;;;;10.88;6.13;;;9.50;97.30;;;;;;5100189;28;20754;-71
2024/02/27 11:45:08;;;;;;;10.07;6.63;;;9.50;97.40;;;;;;5098979;28;20072;-71
2024/02/27 11:47:53;;;;;;;11.65;7.13;;;9.50;97.50;;;;;;5093390;28;20043;-71
2024/02/27 11:50:36;;;;;;;10.35;6.53;;;9.60;97.60;;;;;;5103229;28;20077;-71
2024/02/27 11:53:20;;;;;;;12.00;7.35;;;9.60;97.30;;;;;;5095195;28;20071;-74
2024/02/27 11:55:53;;;;;;;9.55;5.97;;;9.60;96.70;;;;;;5103639;28;20024;-71
2024/02/27 11:58:23;;;;;;;9.80;5.82;;;9.70;96.70;;;;;;5098606;28;20038;-71
2024/02/27 12:00:53;;;;;;;11.88;6.63;;;9.80;96.50;;;;;;5105708;28;20110;-72
2024/02/27 12:03:19;;;;;;;11.25;6.82;;;9.80;96.90;;;;;;5108603;28;20036;-71
2024/02/27 12:05:49;;;;;;;10.20;6.50;;;9.90;97.00;;;;;;5093780;28;20040;-71
2024/02/27 12:08:16;;;;;;;9.10;6.10;;;9.80;96.90;;;;;;5106890;28;20036;-71
2024/02/27 12:10:43;;;;;;;12.23;6.85;;;9.90;97.10;;;;;;5098732;28;20447;-71
2024/02/27 12:13:09;;;;;;;10.48;6.60;;;9.90;97.20;;;;;;5108634;28;20038;-71
2024/02/27 12:15:34;;;;;;;9.05;5.85;;;9.90;97.30;;;;;;5093084;28;20024;-72
2024/02/27 12:18:00;;;;;;;9.77;5.97;;;9.90;96.80;;;;;;5099183;28;20135;-79
2024/02/27 12:20:32;;;;;;;9.20;5.60;;;10.00;96.70;;;;;;5103427;28;20057;-70
2024/02/27 12:22:58;;;;;;;10.18;6.05;;;10.00;96.70;;;;;;5091847;28;20028;-71
2024/02/27 12:25:24;;;;;;;9.43;6.05;;;10.00;96.60;;;;;;5104828;28;20020;-71
2024/02/27 12:27:53;;;;;;;11.55;6.15;;;10.10;96.30;;;;;;5102112;28;20483;-71
2024/02/27 12:30:22;;;;;;;8.82;6.15;;;10.20;96.00;;;;;;5093437;28;20073;-71
2024/02/27 12:32:48;;;;;;;9.55;4.97;;;10.20;95.80;;;;;;5102888;28;20039;-71
2024/02/27 12:35:15;;;;;;;8.98;5.28;;;10.30;95.70;;;;;;5108303;27;20070;-71
2024/02/27 12:37:48;;;;;;;10.60;5.63;;;10.50;95.70;;;;;;5095455;28;20031;-71
2024/02/27 12:40:16;;;;;;;10.63;6.25;;;10.50;95.70;;;;;;5111626;28;20106;-71
2024/02/27 12:42:47;;;;;;;11.27;6.70;;;10.60;95.60;;;;;;5097608;28;20071;-71
2024/02/27 12:45:17;;;;;;;11.55;6.10;;;10.70;95.50;;;;;;5109545;28;20032;-70
2024/02/27 12:47:50;;;;;;;8.32;5.55;;;10.70;95.40;;;;;;5092248;28;20058;-71
2024/02/27 12:50:19;;;;;;;;;;;10.80;95.40;;;;;;5090960;28;20024;-70
2024/02/27 12:52:50;;;;;;;10.18;5.90;;;10.80;95.80;;;;;;5096399;28;19981;-70